Time;durP1;ratioP1;P1;durP2;ratioP2;P2;SDS_P1;SDS_P2;PMS_P1;PMS_P2;Temp;Humidity;BMP_temperature;BMP_pressure;BME280_temperature;BME280_humidity;BME280_pressure;Samples;Min_cycle;Max_cycle;Signal;HPM_P1;HPM_P2
2022/04/01 00:00:12;;;;;;;1.90;1.60;;;23.10;51.40;;;;;;5104787;28;20510;-89
2022/04/01 00:02:38;;;;;;;1.53;1.40;;;23.10;51.40;;;;;;5104367;28;20530;-90
2022/04/01 00:05:06;;;;;;;1.60;1.40;;;23.10;51.40;;;;;;5105247;28;20461;-89
2022/04/01 00:07:32;;;;;;;2.10;1.70;;;23.10;51.40;;;;;;5102090;28;20425;-90
2022/04/01 00:09:58;;;;;;;2.07;1.60;;;23.10;51.40;;;;;;5104230;28;20421;-89
2022/04/01 00:12:24;;;;;;;1.60;1.30;;;23.00;51.30;;;;;;5105220;28;20478;-89
2022/04/01 00:14:50;;;;;;;2.00;1.80;;;23.00;51.30;;;;;;5096968;28;20741;-89
2022/04/01 00:17:16;;;;;;;2.67;1.73;;;23.00;51.30;;;;;;5103880;28;20207;-90
2022/04/01 00:19:41;;;;;;;1.50;1.37;;;23.00;51.30;;;;;;5103902;28;20415;-89
2022/04/01 00:22:07;;;;;;;1.90;1.70;;;23.00;51.30;;;;;;5104068;28;20212;-89
2022/04/01 00:24:33;;;;;;;2.03;1.50;;;23.00;51.30;;;;;;5105618;28;20181;-88
2022/04/01 00:26:59;;;;;;;1.50;1.40;;;23.00;51.30;;;;;;5105225;28;20238;-89
2022/04/01 00:29:25;;;;;;;1.60;1.50;;;23.00;51.30;;;;;;5104016;28;20411;-90
2022/04/01 00:31:59;;;;;;;2.80;2.00;;;23.00;51.30;;;;;;5104413;28;20411;-90
2022/04/01 00:34:30;;;;;;;1.73;1.63;;;23.00;51.30;;;;;;5105529;28;20408;-90
2022/04/01 00:36:58;;;;;;;1.63;1.40;;;23.00;51.30;;;;;;5105028;28;20451;-90
2022/04/01 00:39:26;;;;;;;1.97;1.77;;;23.00;51.30;;;;;;5103592;28;20438;-90
2022/04/01 00:41:53;;;;;;;1.73;1.63;;;23.00;51.30;;;;;;5097469;28;20504;-90
2022/04/01 00:44:29;;;;;;;1.73;1.40;;;23.00;51.30;;;;;;5107135;28;20407;-90
2022/04/01 00:46:57;;;;;;;1.77;1.50;;;23.00;51.30;;;;;;5108883;28;20408;-90
2022/04/01 00:49:26;;;;;;;1.50;1.40;;;23.00;51.30;;;;;;5109500;28;20471;-90
2022/04/01 00:51:55;;;;;;;2.30;1.50;;;23.00;51.30;;;;;;5110378;28;20407;-89
2022/04/01 00:54:21;;;;;;;1.60;1.50;;;23.00;51.40;;;;;;5108954;28;20989;-90
2022/04/01 00:56:47;;;;;;;1.70;1.50;;;23.00;51.40;;;;;;5109595;28;20430;-90
2022/04/01 00:59:13;;;;;;;1.83;1.50;;;22.90;51.30;;;;;;5109942;28;20411;-90
2022/04/01 01:01:47;;;;;;;1.70;1.50;;;22.90;51.30;;;;;;5108125;28;20205;-89
2022/04/01 01:04:14;;;;;;;1.73;1.63;;;22.90;51.30;;;;;;5108756;28;20414;-89
2022/04/01 01:06:43;;;;;;;1.50;1.40;;;22.90;51.30;;;;;;5109048;28;20925;-90
2022/04/01 01:09:10;;;;;;;1.70;1.60;;;22.90;51.40;;;;;;5108444;28;20420;-90
2022/04/01 01:11:53;;;;;;;1.60;1.37;;;22.90;51.40;;;;;;5109719;28;20411;-89
2022/04/01 01:14:36;;;;;;;1.50;1.30;;;22.90;51.40;;;;;;5108538;28;20407;-89
2022/04/01 01:17:12;;;;;;;1.30;1.07;;;22.90;51.40;;;;;;5108980;28;20396;-90
2022/04/01 01:19:39;;;;;;;2.27;1.83;;;22.90;51.40;;;;;;5108369;28;20415;-89
2022/04/01 01:22:06;;;;;;;1.50;1.40;;;22.90;51.40;;;;;;5107469;28;20463;-89
2022/04/01 01:24:41;;;;;;;1.70;1.40;;;22.90;51.40;;;;;;5109632;28;20411;-89
2022/04/01 01:27:08;;;;;;;1.90;1.70;;;22.90;51.40;;;;;;5109876;28;20431;-90
2022/04/01 01:29:37;;;;;;;1.50;1.40;;;22.90;51.40;;;;;;5108692;28;20816;-90
2022/04/01 01:32:05;;;;;;;1.27;1.17;;;22.90;51.40;;;;;;5108557;28;20443;-90
2022/04/01 01:34:32;;;;;;;1.67;1.50;;;22.90;51.40;;;;;;5107656;28;20516;-90
2022/04/01 01:36:59;;;;;;;1.60;1.30;;;22.90;51.40;;;;;;5107783;28;20423;-90
2022/04/01 01:39:25;;;;;;;1.63;1.50;;;22.90;51.40;;;;;;5108014;28;20420;-90
2022/04/01 01:41:53;;;;;;;2.63;1.27;;;22.90;51.40;;;;;;5107973;28;20969;-89
2022/04/01 01:44:21;;;;;;;1.53;1.27;;;22.90;51.40;;;;;;5103286;28;20596;-90
2022/04/01 01:46:46;;;;;;;1.70;1.60;;;22.90;51.40;;;;;;5088736;28;20894;-89
2022/04/01 01:49:13;;;;;;;1.60;1.50;;;22.90;51.40;;;;;;5087932;28;20413;-90
2022/04/01 01:55:00;;;;;;;1.70;1.50;;;22.90;51.40;;;;;;5110975;28;20407;-90
2022/04/01 01:57:27;;;;;;;1.70;1.60;;;22.80;51.30;;;;;;5108325;28;20455;-90
2022/04/01 01:59:54;;;;;;;2.53;2.33;;;22.80;51.30;;;;;;5109623;28;20169;-89
2022/04/01 02:02:20;;;;;;;1.50;1.30;;;22.80;51.40;;;;;;5109067;28;20459;-89
2022/04/01 02:04:47;;;;;;;1.40;1.20;;;22.80;51.40;;;;;;5109201;28;20439;-90
2022/04/01 02:07:13;;;;;;;1.67;1.57;;;22.80;51.30;;;;;;5109360;28;20981;-89
2022/04/01 02:09:46;;;;;;;1.83;1.33;;;22.90;51.40;;;;;;5107588;28;20424;-89
2022/04/01 02:12:12;;;;;;;1.77;1.30;;;22.80;51.30;;;;;;5104396;28;20462;-90
2022/04/01 02:14:38;;;;;;;1.50;1.40;;;22.80;51.30;;;;;;5103276;28;20525;-90
2022/04/01 02:17:05;;;;;;;1.40;1.20;;;22.80;51.30;;;;;;5108726;28;20165;-90
2022/04/01 02:19:31;;;;;;;1.60;1.30;;;22.80;51.40;;;;;;5107552;28;20787;-89
2022/04/01 02:21:57;;;;;;;1.30;1.13;;;22.80;51.40;;;;;;5109094;28;20447;-89
2022/04/01 02:24:24;;;;;;;1.73;1.30;;;22.80;51.30;;;;;;5108595;28;20408;-89
2022/04/01 02:26:50;;;;;;;1.70;1.43;;;22.80;51.30;;;;;;5108280;28;20461;-89
2022/04/01 02:29:19;;;;;;;1.60;1.50;;;22.80;51.30;;;;;;5107430;28;20420;-89
2022/04/01 02:31:46;;;;;;;1.87;1.47;;;22.80;51.30;;;;;;5107328;28;20442;-89
2022/04/01 02:34:12;;;;;;;1.40;1.30;;;22.80;51.40;;;;;;5107000;28;20426;-89
2022/04/01 02:40:03;;;;;;;1.47;1.33;;;22.80;51.30;;;;;;5107549;28;20414;-89
2022/04/01 02:42:29;;;;;;;1.67;1.13;;;22.80;51.40;;;;;;5106953;28;21048;-89
2022/04/01 02:44:57;;;;;;;1.57;1.37;;;22.80;51.40;;;;;;5108297;28;20408;-89
2022/04/01 02:47:24;;;;;;;1.70;1.37;;;22.80;51.40;;;;;;5106443;28;20434;-89
2022/04/01 02:49:50;;;;;;;1.53;1.30;;;22.70;51.40;;;;;;5107440;28;20416;-89
2022/04/01 02:52:16;;;;;;;1.60;1.30;;;22.70;51.30;;;;;;5116421;28;20893;-89
2022/04/01 02:54:43;;;;;;;1.60;1.50;;;22.80;51.40;;;;;;5107725;28;20483;-89
2022/04/01 02:57:09;;;;;;;1.40;1.30;;;22.70;51.30;;;;;;5106662;28;20166;-89
2022/04/01 02:59:36;;;;;;;1.40;1.27;;;22.70;51.30;;;;;;5107879;28;20484;-89
2022/04/01 03:02:03;;;;;;;1.47;1.37;;;22.80;51.40;;;;;;5105930;28;20201;-89
2022/04/01 03:04:29;;;;;;;1.60;1.43;;;22.70;51.30;;;;;;5108047;28;20399;-89
2022/04/01 03:06:55;;;;;;;1.87;1.53;;;22.70;51.30;;;;;;5107137;28;20423;-89
2022/04/01 03:09:21;;;;;;;1.57;1.47;;;22.70;51.30;;;;;;5108091;28;20166;-88
2022/04/01 03:11:46;;;;;;;1.30;1.20;;;22.70;51.30;;;;;;5107242;28;20449;-89
2022/04/01 03:14:12;;;;;;;1.40;1.30;;;22.70;51.70;;;;;;5091486;28;20186;-88
2022/04/01 03:16:39;;;;;;;1.50;1.30;;;22.70;51.30;;;;;;5105311;28;20234;-89
2022/04/01 03:19:08;;;;;;;1.70;1.30;;;22.70;51.30;;;;;;5106316;28;20426;-89
2022/04/01 03:21:35;;;;;;;1.40;1.30;;;22.70;51.30;;;;;;5100689;28;20462;-89
2022/04/01 03:24:02;;;;;;;1.80;1.33;;;22.70;51.30;;;;;;5105154;28;20423;-89
2022/04/01 03:26:28;;;;;;;1.33;1.23;;;22.80;51.40;;;;;;5106215;28;20435;-89
2022/04/01 03:28:55;;;;;;;1.50;1.23;;;22.70;51.30;;;;;;5100665;28;20475;-88
2022/04/01 03:31:22;;;;;;;1.47;1.20;;;22.70;51.90;;;;;;5104167;28;20424;-89
2022/04/01 03:33:48;;;;;;;1.53;1.20;;;22.70;51.30;;;;;;5107757;28;20415;-88
2022/04/01 03:36:14;;;;;;;1.20;1.00;;;22.70;51.30;;;;;;5106031;28;20484;-88
2022/04/01 03:38:40;;;;;;;1.40;1.20;;;22.70;51.30;;;;;;5106344;28;20189;-89
2022/04/01 03:41:08;;;;;;;1.83;1.63;;;22.70;51.30;;;;;;5105949;28;21017;-89
2022/04/01 03:43:36;;;;;;;1.60;1.37;;;22.70;51.30;;;;;;5106820;28;20426;-89
2022/04/01 03:46:08;;;;;;;1.20;1.07;;;22.70;51.30;;;;;;5105794;28;20448;-89
2022/04/01 03:48:48;;;;;;;1.87;1.30;;;22.70;51.30;;;;;;5107110;28;20412;-89
2022/04/01 03:51:24;;;;;;;1.50;1.10;;;22.70;51.40;;;;;;5107021;28;20929;-89
2022/04/01 03:53:57;;;;;;;1.50;1.40;;;22.70;51.40;;;;;;5106934;28;20400;-89
2022/04/01 03:56:29;;;;;;;1.70;1.60;;;22.70;51.40;;;;;;5108152;28;20439;-89
2022/04/01 03:59:06;;;;;;;1.40;1.20;;;22.70;51.40;;;;;;5108463;28;20396;-89
2022/04/01 04:01:34;;;;;;;1.40;1.17;;;22.70;51.40;;;;;;5104022;28;20451;-89
2022/04/01 04:04:01;;;;;;;1.67;1.37;;;22.70;51.40;;;;;;5087080;28;20444;-89
2022/04/01 04:06:32;;;;;;;1.60;1.50;;;22.70;51.30;;;;;;5100084;28;20472;-89
2022/04/01 04:09:00;;;;;;;1.63;1.53;;;22.70;51.40;;;;;;5113793;28;20428;-89
2022/04/01 04:11:30;;;;;;;1.50;1.40;;;22.70;51.30;;;;;;5117175;28;20411;-89
2022/04/01 04:13:58;;;;;;;2.10;1.43;;;22.70;51.40;;;;;;5106107;28;20412;-89
2022/04/01 04:16:29;;;;;;;1.40;1.30;;;22.70;51.30;;;;;;5105654;28;20431;-89
2022/04/01 04:19:09;;;;;;;1.53;1.20;;;22.70;51.30;;;;;;5108812;28;20777;-89
2022/04/01 04:21:54;;;;;;;1.63;1.53;;;22.70;51.30;;;;;;5109786;28;20470;-90
2022/04/01 04:24:36;;;;;;;1.40;1.30;;;22.70;51.30;;;;;;5110237;28;20517;-89
2022/04/01 04:27:17;;;;;;;1.30;1.20;;;22.70;51.40;;;;;;5109772;28;20422;-90
2022/04/01 04:29:55;;;;;;;1.83;1.40;;;22.70;51.40;;;;;;5121338;28;20492;-89
2022/04/01 04:33:20;;;;;;;1.40;1.10;;;22.70;51.40;;;;;;5122395;28;20415;-90
2022/04/01 04:35:51;;;;;;;1.57;1.30;;;22.70;51.40;;;;;;5100567;28;20407;-89
2022/04/01 04:38:20;;;;;;;1.30;1.20;;;22.60;51.30;;;;;;5110261;28;20407;-89
2022/04/01 04:40:47;;;;;;;1.30;1.20;;;22.60;51.30;;;;;;5110665;28;20407;-88
2022/04/01 04:43:18;;;;;;;1.53;1.43;;;22.60;51.30;;;;;;5109433;28;20932;-89
2022/04/01 04:45:49;;;;;;;1.43;1.33;;;22.60;51.30;;;;;;5111149;28;20403;-88
2022/04/01 04:48:16;;;;;;;1.67;1.57;;;22.70;51.40;;;;;;5114877;28;20384;-88
2022/04/01 04:50:47;;;;;;;1.73;1.57;;;22.60;51.20;;;;;;5113314;28;20411;-88
2022/04/01 04:53:14;;;;;;;1.33;1.23;;;22.60;51.20;;;;;;5112470;28;20478;-89
2022/04/01 04:55:44;;;;;;;1.80;1.53;;;22.60;51.20;;;;;;5114306;28;20403;-89
2022/04/01 04:58:10;;;;;;;1.73;1.30;;;22.60;51.20;;;;;;5111907;28;20408;-88
2022/04/01 05:00:38;;;;;;;1.30;1.17;;;22.60;51.20;;;;;;5112793;28;20424;-89
2022/04/01 05:03:16;;;;;;;1.83;1.33;;;22.60;51.20;;;;;;5113350;28;20459;-89
2022/04/01 05:05:43;;;;;;;1.33;1.23;;;22.70;51.30;;;;;;5111339;28;20426;-89
2022/04/01 05:08:31;;;;;;;1.50;1.40;;;22.70;51.30;;;;;;5110173;28;20423;-89
2022/04/01 05:11:08;;;;;;;4.33;1.10;;;22.70;51.30;;;;;;5110655;28;20463;-90
2022/04/01 05:13:45;;;;;;;1.97;1.57;;;22.70;51.30;;;;;;5110329;28;20755;-89
2022/04/01 05:16:31;;;;;;;1.40;1.30;;;22.70;51.30;;;;;;5110874;28;20437;-89
2022/04/01 05:19:10;;;;;;;2.03;1.40;;;22.70;51.30;;;;;;5109658;28;20486;-86
2022/04/01 05:21:59;;;;;;;2.07;1.33;;;22.70;51.30;;;;;;5111052;28;20530;-88
2022/04/01 05:24:58;;;;;;;2.00;1.40;;;22.70;51.30;;;;;;5109241;28;20412;-88
2022/04/01 05:27:29;;;;;;;1.30;1.20;;;22.70;51.30;;;;;;5090772;28;20424;-88
2022/04/01 05:30:13;;;;;;;1.03;0.90;;;22.70;51.30;;;;;;5109049;28;20781;-88
2022/04/01 05:32:48;;;;;;;1.20;1.10;;;22.70;51.30;;;;;;5109948;28;20404;-87
2022/04/01 05:35:17;;;;;;;1.70;1.40;;;22.70;51.30;;;;;;5109566;28;20411;-88
2022/04/01 05:37:51;;;;;;;1.20;1.10;;;22.70;51.30;;;;;;5110334;28;20423;-87
2022/04/01 05:40:21;;;;;;;1.50;1.40;;;22.70;51.30;;;;;;5110234;28;20439;-87
2022/04/01 05:42:47;;;;;;;1.80;1.60;;;22.70;51.30;;;;;;5110088;28;20448;-87
2022/04/01 05:45:18;;;;;;;1.50;1.40;;;22.70;51.30;;;;;;5093691;28;20408;-88
2022/04/01 05:47:44;;;;;;;2.40;1.30;;;22.70;51.30;;;;;;5111556;28;20435;-87
2022/04/01 05:50:11;;;;;;;1.37;1.27;;;22.70;51.30;;;;;;5112139;28;20425;-87
2022/04/01 05:52:37;;;;;;;1.60;1.13;;;22.70;51.30;;;;;;5112266;28;20450;-89
2022/04/01 05:55:04;;;;;;;1.30;1.20;;;22.70;51.30;;;;;;5132865;28;20418;-89
2022/04/01 05:57:30;;;;;;;1.57;1.10;;;22.70;51.30;;;;;;5129778;28;20422;-88
2022/04/01 06:00:05;;;;;;;2.10;1.10;;;22.70;51.20;;;;;;5129629;28;20415;-89
2022/04/01 06:02:55;;;;;;;1.50;1.23;;;22.70;51.30;;;;;;5122903;28;20205;-89
2022/04/01 06:05:42;;;;;;;1.30;1.20;;;22.70;51.30;;;;;;5110547;28;20414;-89
2022/04/01 06:08:49;;;;;;;1.87;1.30;;;22.70;51.20;;;;;;5109978;28;20800;-88
2022/04/01 06:11:29;;;;;;;1.63;1.30;;;22.70;51.30;;;;;;5108976;28;20510;-89
2022/04/01 06:14:11;;;;;;;1.60;1.30;;;22.70;51.30;;;;;;5108945;28;20469;-88
2022/04/01 06:16:48;;;;;;;1.37;1.27;;;22.70;51.30;;;;;;5109566;28;20407;-87
2022/04/01 06:19:25;;;;;;;1.23;1.00;;;22.70;51.30;;;;;;5108888;28;20477;-88
2022/04/01 06:22:12;;;;;;;1.63;1.03;;;22.70;51.30;;;;;;5108584;28;20461;-88
2022/04/01 06:25:02;;;;;;;2.37;1.27;;;22.70;51.30;;;;;;5108370;28;20400;-89
2022/04/01 06:27:40;;;;;;;1.40;1.23;;;22.70;51.30;;;;;;5108500;28;20906;-89
2022/04/01 06:30:09;;;;;;;1.30;1.20;;;22.70;51.30;;;;;;5108208;28;20399;-89
2022/04/01 06:32:43;;;;;;;1.20;1.10;;;22.70;51.30;;;;;;5109475;28;20453;-87
2022/04/01 06:35:12;;;;;;;1.60;1.50;;;22.70;51.30;;;;;;5108748;28;20437;-88
2022/04/01 06:37:46;;;;;;;1.40;1.20;;;22.70;51.30;;;;;;5111514;28;20495;-89
2022/04/01 06:40:21;;;;;;;1.40;1.20;;;22.70;51.30;;;;;;5109072;28;20412;-89
2022/04/01 06:42:49;;;;;;;1.70;1.33;;;22.70;51.30;;;;;;5108782;28;20511;-89
2022/04/01 06:45:18;;;;;;;1.50;1.30;;;22.70;51.30;;;;;;5112562;28;20422;-88
2022/04/01 06:47:45;;;;;;;1.27;1.17;;;22.70;51.30;;;;;;5108663;28;20416;-88
2022/04/01 06:50:12;;;;;;;1.70;1.20;;;22.70;51.30;;;;;;5111508;28;20407;-88
2022/04/01 06:52:39;;;;;;;1.53;1.10;;;22.70;51.30;;;;;;5111726;28;20416;-88
2022/04/01 06:55:09;;;;;;;1.37;1.27;;;22.70;51.30;;;;;;5109323;28;20404;-87
2022/04/01 06:57:35;;;;;;;1.33;1.23;;;22.70;51.30;;;;;;5112761;28;20419;-89
2022/04/01 07:00:04;;;;;;;1.37;1.00;;;22.70;51.30;;;;;;5111551;28;20411;-89
2022/04/01 07:02:40;;;;;;;1.37;1.10;;;22.70;51.30;;;;;;5109125;28;20467;-88
2022/04/01 07:05:06;;;;;;;1.60;1.23;;;22.70;51.80;;;;;;5108798;28;20423;-89
2022/04/01 07:07:32;;;;;;;1.97;1.30;;;22.80;51.90;;;;;;5108019;28;20415;-88
2022/04/01 07:10:01;;;;;;;1.20;1.10;;;22.80;51.30;;;;;;5108251;28;20449;-89
2022/04/01 07:12:27;;;;;;;2.00;1.30;;;22.80;51.30;;;;;;5107313;28;20608;-89
2022/04/01 07:15:32;;;;;;;1.33;1.23;;;22.80;51.30;;;;;;5108237;28;20437;-89
2022/04/01 07:17:59;;;;;;;1.07;0.90;;;22.80;51.30;;;;;;5106757;28;20406;-89
2022/04/01 07:20:25;;;;;;;1.10;0.90;;;22.80;51.30;;;;;;5106809;28;20411;-89
2022/04/01 07:26:13;;;;;;;1.27;1.10;;;22.80;51.30;;;;;;5107666;28;20379;-88
2022/04/01 07:28:39;;;;;;;1.43;1.23;;;22.80;51.30;;;;;;5107464;28;20502;-89
2022/04/01 07:33:51;;;;;;;1.40;1.10;;;22.80;51.30;;;;;;5107538;28;20466;-89
2022/04/01 07:36:20;;;;;;;1.83;1.07;;;22.80;51.40;;;;;;5106427;28;20431;-89
2022/04/01 07:38:46;;;;;;;1.80;1.30;;;22.80;51.30;;;;;;5106081;28;20412;-88
2022/04/01 07:41:11;;;;;;;1.27;1.03;;;22.80;51.30;;;;;;5089576;28;20478;-88
2022/04/01 07:43:37;;;;;;;2.07;1.10;;;22.80;51.30;;;;;;5107729;28;20174;-88
2022/04/01 07:46:04;;;;;;;1.20;1.10;;;22.90;51.40;;;;;;5109691;28;20192;-88
2022/04/01 07:48:30;;;;;;;1.67;1.30;;;22.90;51.40;;;;;;5107268;28;20408;-88
2022/04/01 07:50:56;;;;;;;2.07;1.87;;;22.80;51.20;;;;;;5107198;28;20952;-88
2022/04/01 07:53:23;;;;;;;3.97;1.30;;;22.90;51.30;;;;;;5106724;28;20423;-88
2022/04/01 07:55:49;;;;;;;2.27;1.30;;;22.90;51.30;;;;;;5107623;28;20165;-89
2022/04/01 07:58:18;;;;;;;1.20;0.90;;;22.90;51.30;;;;;;5105565;28;20461;-89
2022/04/01 08:01:04;;;;;;;1.20;1.03;;;22.90;51.30;;;;;;5105907;28;20196;-88
2022/04/01 08:03:32;;;;;;;1.00;0.90;;;22.90;51.30;;;;;;5106156;28;20439;-88
2022/04/01 08:05:59;;;;;;;1.40;1.23;;;22.90;51.30;;;;;;5105600;28;20446;-89
2022/04/01 08:08:24;;;;;;;1.70;1.23;;;22.90;51.30;;;;;;5107412;28;20173;-88
2022/04/01 08:10:51;;;;;;;1.40;1.20;;;22.90;51.30;;;;;;5105858;28;20400;-88
2022/04/01 08:13:17;;;;;;;1.10;1.00;;;22.90;51.30;;;;;;5106075;28;20245;-89
2022/04/01 08:15:45;;;;;;;1.00;0.90;;;22.90;51.30;;;;;;5106323;28;20407;-89
2022/04/01 08:18:11;;;;;;;1.93;1.20;;;22.90;51.30;;;;;;5106573;28;20874;-88
2022/04/01 08:20:37;;;;;;;1.20;1.07;;;22.90;51.30;;;;;;5108231;28;20396;-89
2022/04/01 08:26:26;;;;;;;1.40;1.10;;;22.90;51.30;;;;;;5107134;28;20152;-88
2022/04/01 08:28:53;;;;;;;1.43;1.23;;;22.90;51.30;;;;;;5110380;28;20411;-90
2022/04/01 08:31:20;;;;;;;2.97;1.33;;;22.90;51.30;;;;;;5110091;28;20473;-89
2022/04/01 08:33:47;;;;;;;1.10;0.97;;;22.90;51.30;;;;;;5106319;28;20775;-89
2022/04/01 08:36:14;;;;;;;1.40;1.30;;;23.00;51.40;;;;;;5110861;28;20415;-88
2022/04/01 08:38:40;;;;;;;4.13;1.40;;;23.00;51.40;;;;;;5108512;28;20431;-88
2022/04/01 08:41:07;;;;;;;1.23;0.90;;;23.00;51.40;;;;;;5105719;28;20426;-89
2022/04/01 08:43:34;;;;;;;1.83;1.10;;;23.00;51.40;;;;;;5106764;28;20411;-88
2022/04/01 08:46:04;;;;;;;2.10;1.47;;;23.00;51.40;;;;;;5104889;28;20467;-88
2022/04/01 08:48:31;;;;;;;1.40;1.20;;;23.00;51.40;;;;;;5106510;28;20406;-88
2022/04/01 08:51:00;;;;;;;1.30;1.20;;;23.00;51.40;;;;;;5106759;28;20396;-89
2022/04/01 08:53:26;;;;;;;2.53;1.23;;;23.00;51.40;;;;;;5105850;28;20424;-88
2022/04/01 08:55:53;;;;;;;1.30;1.20;;;23.00;51.40;;;;;;5105837;28;20423;-88
2022/04/01 08:58:20;;;;;;;1.20;1.10;;;23.00;51.40;;;;;;5106209;28;20403;-87
2022/04/01 09:00:47;;;;;;;1.50;1.20;;;23.00;51.40;;;;;;5106516;28;20403;-88
2022/04/01 09:03:18;;;;;;;1.60;1.30;;;23.00;51.40;;;;;;5105956;28;20456;-88
2022/04/01 09:05:53;;;;;;;2.23;1.30;;;23.00;51.40;;;;;;5108675;28;20426;-89
2022/04/01 09:08:33;;;;;;;1.20;1.10;;;23.00;51.40;;;;;;5109987;28;20406;-88
2022/04/01 09:11:08;;;;;;;1.43;1.10;;;23.00;51.40;;;;;;5092986;28;20514;-88
2022/04/01 09:13:43;;;;;;;1.40;1.20;;;23.00;51.40;;;;;;5109292;28;20430;-88
2022/04/01 09:16:21;;;;;;;1.73;1.47;;;23.00;51.40;;;;;;5109084;28;20434;-88
2022/04/01 09:18:47;;;;;;;1.93;1.27;;;23.00;51.40;;;;;;5110002;28;20391;-88
2022/04/01 09:21:14;;;;;;;1.90;1.10;;;23.00;51.40;;;;;;5109569;28;20425;-88
2022/04/01 09:23:46;;;;;;;1.60;1.20;;;23.00;51.40;;;;;;5109659;28;20404;-88
2022/04/01 09:26:12;;;;;;;1.77;1.40;;;23.00;51.40;;;;;;5108748;28;20407;-88
2022/04/01 09:28:40;;;;;;;1.30;1.20;;;23.00;51.40;;;;;;5108355;28;20421;-88
2022/04/01 09:31:07;;;;;;;1.53;1.10;;;23.00;51.40;;;;;;5110373;28;20176;-88
2022/04/01 09:33:46;;;;;;;1.67;1.30;;;23.00;51.40;;;;;;5109847;28;20430;-87
2022/04/01 09:36:17;;;;;;;1.50;1.00;;;23.10;51.40;;;;;;5108365;28;20450;-88
2022/04/01 09:39:08;;;;;;;1.30;1.20;;;23.00;51.40;;;;;;5109871;28;20419;-88
2022/04/01 09:41:43;;;;;;;1.50;1.10;;;23.10;51.50;;;;;;5107879;28;20467;-88
2022/04/01 09:44:16;;;;;;;1.40;1.23;;;23.00;51.40;;;;;;5109443;28;20391;-88
2022/04/01 09:46:44;;;;;;;1.40;1.10;;;23.00;51.40;;;;;;5109871;28;20460;-88
2022/04/01 09:49:12;;;;;;;1.40;1.17;;;23.10;51.40;;;;;;5108699;28;20408;-88
2022/04/01 09:51:42;;;;;;;1.33;1.20;;;23.10;51.40;;;;;;5109739;28;20395;-88
2022/04/01 09:54:08;;;;;;;1.23;1.10;;;23.10;51.40;;;;;;5109212;28;20760;-88
2022/04/01 09:56:46;;;;;;;1.30;1.10;;;23.10;51.40;;;;;;5125358;28;20415;-88
2022/04/01 09:59:16;;;;;;;1.30;1.10;;;23.10;51.40;;;;;;5129116;28;20442;-88
2022/04/01 10:01:43;;;;;;;1.37;1.10;;;23.10;51.40;;;;;;5128787;28;20477;-88
2022/04/01 10:04:12;;;;;;;1.53;1.20;;;23.10;51.40;;;;;;5115075;28;20510;-88
2022/04/01 10:06:39;;;;;;;1.53;1.00;;;23.10;51.40;;;;;;5108037;28;20427;-89
2022/04/01 10:09:12;;;;;;;2.20;1.40;;;23.10;51.40;;;;;;5108967;28;20411;-87
2022/04/01 10:11:42;;;;;;;1.27;1.00;;;23.10;51.40;;;;;;5116535;28;20419;-88
2022/04/01 10:14:23;;;;;;;1.53;1.13;;;23.10;51.40;;;;;;5114074;28;20485;-88
2022/04/01 10:16:50;;;;;;;1.57;1.30;;;23.10;51.40;;;;;;5107526;28;20440;-87
2022/04/01 10:19:25;;;;;;;1.30;1.13;;;23.10;51.40;;;;;;5108164;28;20447;-88
2022/04/01 10:21:51;;;;;;;2.27;1.17;;;23.10;51.40;;;;;;5099000;28;20820;-88
2022/04/01 10:24:38;;;;;;;1.93;1.20;;;23.10;51.40;;;;;;5108521;28;20490;-89
2022/04/01 10:27:04;;;;;;;1.30;1.10;;;23.10;51.40;;;;;;5105598;28;20412;-88
2022/04/01 10:29:32;;;;;;;1.30;1.20;;;23.10;51.40;;;;;;5107433;28;20423;-88
2022/04/01 10:32:24;;;;;;;1.20;1.03;;;23.10;51.40;;;;;;5083971;28;20221;-88
2022/04/01 10:34:53;;;;;;;1.20;1.10;;;23.10;51.40;;;;;;5104194;28;20483;-88
2022/04/01 10:37:23;;;;;;;1.00;0.90;;;23.10;51.40;;;;;;5107691;28;20424;-87
2022/04/01 10:40:00;;;;;;;1.20;1.07;;;23.10;51.40;;;;;;5102308;28;20419;-87
2022/04/01 10:45:58;;;;;;;1.30;1.10;;;23.20;51.40;;;;;;5107934;28;20399;-88
2022/04/01 10:51:36;;;;;;;1.13;1.00;;;23.10;51.40;;;;;;5106410;28;20410;-89
2022/04/01 10:54:14;;;;;;;1.63;1.10;;;23.10;51.40;;;;;;5106998;28;20396;-88
2022/04/01 10:56:40;;;;;;;1.37;1.00;;;23.10;51.40;;;;;;5105977;28;20417;-88
2022/04/01 10:59:16;;;;;;;1.27;1.10;;;23.10;51.40;;;;;;5106495;28;20941;-88
2022/04/01 11:01:51;;;;;;;2.17;0.80;;;23.10;51.40;;;;;;5106512;28;20564;-89
2022/04/01 11:04:20;;;;;;;1.07;0.97;;;23.10;51.30;;;;;;5099148;28;20950;-89
2022/04/01 11:07:12;;;;;;;1.60;1.50;;;23.10;51.30;;;;;;5105947;28;20420;-89
2022/04/01 11:09:50;;;;;;;1.50;1.20;;;23.20;51.40;;;;;;5102114;28;20416;-89
2022/04/01 11:12:19;;;;;;;1.67;1.33;;;23.10;51.30;;;;;;5106871;28;20465;-88
2022/04/01 11:17:27;;;;;;;7.47;2.87;;;23.20;51.40;;;;;;5103536;28;20439;-89
2022/04/01 11:20:34;;;;;;;7.17;4.23;;;23.10;51.30;;;;;;5103002;28;20474;-90
2022/04/01 11:23:06;;;;;;;22.87;7.30;;;23.20;51.40;;;;;;5021348;28;20458;-88
2022/04/01 11:25:31;;;;;;;25.90;10.40;;;23.10;51.30;;;;;;5014940;28;20420;-89
2022/04/01 11:28:19;;;;;;;28.00;12.33;;;23.10;51.30;;;;;;5017248;28;20433;-89
2022/04/01 11:31:07;;;;;;;28.13;12.20;;;23.20;51.40;;;;;;4971448;28;20208;-88
2022/04/01 11:33:33;;;;;;;32.40;13.00;;;23.10;51.30;;;;;;4970803;28;20417;-88
2022/04/01 11:35:59;;;;;;;39.23;13.90;;;23.10;51.40;;;;;;4969603;28;20468;-88
2022/04/01 11:41:51;;;;;;;41.23;14.30;;;23.10;51.40;;;;;;4987767;28;20500;-89
2022/04/01 11:44:17;;;;;;;44.17;15.30;;;23.10;51.40;;;;;;4971721;28;20428;-89
2022/04/01 11:46:50;;;;;;;32.17;15.37;;;23.10;51.40;;;;;;4972822;28;20467;-89
2022/04/01 11:49:16;;;;;;;36.40;14.23;;;23.10;51.40;;;;;;4979321;28;20431;-89
2022/04/01 11:51:42;;;;;;;38.93;14.13;;;23.10;51.40;;;;;;4986997;28;20441;-88
2022/04/01 11:54:10;;;;;;;37.90;15.63;;;23.10;51.40;;;;;;4971541;28;20517;-88
2022/04/01 11:56:36;;;;;;;36.63;16.27;;;23.20;51.50;;;;;;4974246;28;20488;-89
2022/04/01 11:59:07;;;;;;;39.67;15.30;;;23.20;51.50;;;;;;4996115;28;20468;-89
2022/04/01 12:01:58;;;;;;;43.07;17.07;;;23.20;51.50;;;;;;5060854;28;20453;-88
2022/04/01 12:04:30;;;;;;;41.47;16.70;;;23.20;51.40;;;;;;5063463;28;20486;-89
2022/04/01 12:09:43;;;;;;;40.07;15.07;;;23.10;51.40;;;;;;5103987;28;20456;-89
2022/04/01 12:12:09;;;;;;;31.90;15.00;;;23.10;51.40;;;;;;5103784;28;20419;-88
2022/04/01 12:14:40;;;;;;;42.63;16.60;;;23.10;51.40;;;;;;5104276;28;20423;-88
2022/04/01 12:17:08;;;;;;;31.37;16.20;;;23.10;51.40;;;;;;5102347;28;20454;-88
2022/04/01 12:19:36;;;;;;;29.03;15.33;;;23.10;51.40;;;;;;5102976;28;20438;-89
2022/04/01 12:22:03;;;;;;;38.67;15.30;;;23.10;51.30;;;;;;5103138;28;20471;-89
2022/04/01 12:24:31;;;;;;;48.67;16.77;;;23.10;51.40;;;;;;5102778;28;20445;-89
2022/04/01 12:26:59;;;;;;;41.60;15.90;;;23.10;51.30;;;;;;5103811;28;20491;-90
2022/04/01 12:29:26;;;;;;;38.03;15.40;;;23.10;51.30;;;;;;5101992;28;20420;-90
2022/04/01 12:31:58;;;;;;;35.70;15.37;;;23.20;51.40;;;;;;5103709;28;20462;-90
2022/04/01 12:34:26;;;;;;;36.27;14.73;;;23.20;51.40;;;;;;5101344;28;20979;-90
2022/04/01 12:37:19;;;;;;;31.87;15.40;;;23.10;51.30;;;;;;5094084;28;20436;-90
2022/04/01 12:39:57;;;;;;;33.90;13.30;;;23.10;51.90;;;;;;5102727;28;20432;-90
2022/04/01 12:42:25;;;;;;;23.93;13.27;;;23.10;51.90;;;;;;5106430;28;20967;-90
2022/04/01 12:44:55;;;;;;;36.37;14.77;;;23.10;51.40;;;;;;5115919;28;20447;-90
2022/04/01 12:47:30;;;;;;;32.93;13.73;;;23.10;51.40;;;;;;5102559;28;20436;-91
2022/04/01 12:49:55;;;;;;;30.50;13.57;;;23.10;51.40;;;;;;5101964;28;20442;-89
2022/04/01 12:52:23;;;;;;;28.93;13.93;;;23.10;51.40;;;;;;5106033;28;20423;-90
2022/04/01 12:54:58;;;;;;;31.53;13.93;;;23.10;51.40;;;;;;5106779;28;20627;-89
2022/04/01 12:57:24;;;;;;;29.50;14.27;;;23.10;52.00;;;;;;5106657;28;20407;-91
2022/04/01 12:59:50;;;;;;;31.20;14.17;;;23.10;51.40;;;;;;5101250;28;20430;-91
2022/04/01 13:02:22;;;;;;;31.73;14.77;;;23.10;51.40;;;;;;5107568;28;20466;-90
2022/04/01 13:04:57;;;;;;;35.37;12.83;;;23.10;51.40;;;;;;5122655;28;20417;-91
2022/04/01 13:07:34;;;;;;;34.50;14.13;;;23.10;51.40;;;;;;5107736;28;20418;-90
2022/04/01 13:10:23;;;;;;;29.30;13.53;;;23.10;51.40;;;;;;5104156;28;20419;-90
2022/04/01 13:12:52;;;;;;;30.00;12.80;;;23.10;51.40;;;;;;5105547;28;20426;-90
2022/04/01 13:15:24;;;;;;;30.97;14.97;;;23.10;51.40;;;;;;5103078;28;20494;-89
2022/04/01 13:17:55;;;;;;;36.37;15.67;;;23.10;51.40;;;;;;5107824;28;20420;-90
2022/04/01 13:20:28;;;;;;;26.30;13.13;;;23.10;51.40;;;;;;5106644;28;20431;-90
2022/04/01 13:22:55;;;;;;;32.13;13.17;;;23.10;51.40;;;;;;5100884;28;20443;-89
2022/04/01 13:25:32;;;;;;;28.07;12.37;;;23.00;51.30;;;;;;5108147;28;21025;-91
2022/04/01 13:27:59;;;;;;;30.50;13.90;;;23.10;51.40;;;;;;5102027;28;20416;-89
2022/04/01 13:30:25;;;;;;;28.00;12.77;;;23.10;51.40;;;;;;5109310;28;20504;-89
2022/04/01 13:33:02;;;;;;;27.87;13.17;;;23.10;51.40;;;;;;5111064;28;20437;-90